sensor_id;sensor_type;location;lat;lon;timestamp;P1;durP1;ratioP1;P2;durP2;ratioP2
62353;SDS011;48391;49.184;2.418;2023-12-20T00:01:54;4.47;;;1.35;;
62353;SDS011;48391;49.184;2.418;2023-12-20T00:04:20;1.40;;;0.60;;
62353;SDS011;48391;49.184;2.418;2023-12-20T00:06:46;3.47;;;0.95;;
62353;SDS011;48391;49.184;2.418;2023-12-20T00:09:12;2.10;;;0.60;;
62353;SDS011;48391;49.184;2.418;2023-12-20T00:11:38;2.55;;;0.47;;
62353;SDS011;48391;49.184;2.418;2023-12-20T00:14:04;4.53;;;0.88;;
62353;SDS011;48391;49.184;2.418;2023-12-20T00:16:30;3.95;;;0.82;;
62353;SDS011;48391;49.184;2.418;2023-12-20T00:18:56;2.33;;;0.52;;
62353;SDS011;48391;49.184;2.418;2023-12-20T00:21:22;3.13;;;0.50;;
62353;SDS011;48391;49.184;2.418;2023-12-20T00:23:49;4.82;;;1.77;;
62353;SDS011;48391;49.184;2.418;2023-12-20T00:26:15;1.23;;;0.50;;
62353;SDS011;48391;49.184;2.418;2023-12-20T00:28:40;3.45;;;0.52;;
62353;SDS011;48391;49.184;2.418;2023-12-20T00:31:07;0.65;;;0.30;;
62353;SDS011;48391;49.184;2.418;2023-12-20T00:33:33;4.20;;;1.13;;
62353;SDS011;48391;49.184;2.418;2023-12-20T00:36:00;2.05;;;0.63;;
62353;SDS011;48391;49.184;2.418;2023-12-20T00:38:26;1.45;;;0.50;;
62353;SDS011;48391;49.184;2.418;2023-12-20T00:40:52;1.95;;;0.90;;
62353;SDS011;48391;49.184;2.418;2023-12-20T00:43:18;1.23;;;0.52;;
62353;SDS011;48391;49.184;2.418;2023-12-20T00:45:44;1.65;;;1.23;;
62353;SDS011;48391;49.184;2.418;2023-12-20T00:48:10;5.53;;;1.45;;
62353;SDS011;48391;49.184;2.418;2023-12-20T00:50:37;7.10;;;2.88;;
62353;SDS011;48391;49.184;2.418;2023-12-20T00:53:03;3.33;;;1.05;;
62353;SDS011;48391;49.184;2.418;2023-12-20T00:55:29;3.88;;;0.98;;
62353;SDS011;48391;49.184;2.418;2023-12-20T00:57:55;2.92;;;0.90;;
62353;SDS011;48391;49.184;2.418;2023-12-20T01:00:21;2.90;;;0.50;;
62353;SDS011;48391;49.184;2.418;2023-12-20T01:02:47;4.45;;;1.35;;
62353;SDS011;48391;49.184;2.418;2023-12-20T01:05:16;3.03;;;0.50;;
62353;SDS011;48391;49.184;2.418;2023-12-20T01:07:42;7.88;;;1.13;;
62353;SDS011;48391;49.184;2.418;2023-12-20T01:10:08;5.00;;;1.25;;
62353;SDS011;48391;49.184;2.418;2023-12-20T01:12:35;5.97;;;0.80;;
62353;SDS011;48391;49.184;2.418;2023-12-20T01:15:02;4.43;;;1.20;;
62353;SDS011;48391;49.184;2.418;2023-12-20T01:17:28;7.65;;;2.13;;
62353;SDS011;48391;49.184;2.418;2023-12-20T01:19:54;1.52;;;0.73;;
62353;SDS011;48391;49.184;2.418;2023-12-20T01:22:20;2.72;;;0.50;;
62353;SDS011;48391;49.184;2.418;2023-12-20T01:24:46;1.65;;;0.32;;
62353;SDS011;48391;49.184;2.418;2023-12-20T01:27:12;3.22;;;0.73;;
62353;SDS011;48391;49.184;2.418;2023-12-20T01:29:38;1.80;;;0.82;;
62353;SDS011;48391;49.184;2.418;2023-12-20T01:32:04;1.30;;;0.28;;
62353;SDS011;48391;49.184;2.418;2023-12-20T01:34:30;1.60;;;0.05;;
62353;SDS011;48391;49.184;2.418;2023-12-20T01:36:56;0.55;;;0.10;;
62353;SDS011;48391;49.184;2.418;2023-12-20T01:39:22;1.95;;;0.30;;
62353;SDS011;48391;49.184;2.418;2023-12-20T01:41:48;2.42;;;0.43;;
62353;SDS011;48391;49.184;2.418;2023-12-20T01:44:14;3.58;;;0.47;;
62353;SDS011;48391;49.184;2.418;2023-12-20T01:46:40;0.68;;;0.20;;
62353;SDS011;48391;49.184;2.418;2023-12-20T01:49:06;0.88;;;0.20;;
62353;SDS011;48391;49.184;2.418;2023-12-20T01:51:33;1.00;;;0.40;;
62353;SDS011;48391;49.184;2.418;2023-12-20T01:53:59;4.70;;;1.02;;
62353;SDS011;48391;49.184;2.418;2023-12-20T01:56:26;2.25;;;0.50;;
62353;SDS011;48391;49.184;2.418;2023-12-20T01:58:54;1.85;;;0.30;;
62353;SDS011;48391;49.184;2.418;2023-12-20T02:01:20;1.13;;;0.73;;
62353;SDS011;48391;49.184;2.418;2023-12-20T02:03:46;3.30;;;0.80;;
62353;SDS011;48391;49.184;2.418;2023-12-20T02:06:13;2.25;;;0.82;;
62353;SDS011;48391;49.184;2.418;2023-12-20T02:08:39;4.80;;;0.82;;
62353;SDS011;48391;49.184;2.418;2023-12-20T02:11:05;3.00;;;0.55;;
62353;SDS011;48391;49.184;2.418;2023-12-20T02:13:31;1.35;;;0.30;;
62353;SDS011;48391;49.184;2.418;2023-12-20T02:15:57;2.42;;;0.32;;
62353;SDS011;48391;49.184;2.418;2023-12-20T02:18:23;2.35;;;0.68;;
62353;SDS011;48391;49.184;2.418;2023-12-20T02:20:49;7.20;;;0.60;;
62353;SDS011;48391;49.184;2.418;2023-12-20T02:23:15;0.43;;;0.30;;
62353;SDS011;48391;49.184;2.418;2023-12-20T02:25:41;1.38;;;0.95;;
62353;SDS011;48391;49.184;2.418;2023-12-20T02:28:07;1.65;;;0.65;;
62353;SDS011;48391;49.184;2.418;2023-12-20T02:30:33;1.35;;;0.80;;
62353;SDS011;48391;49.184;2.418;2023-12-20T02:33:00;1.90;;;0.73;;
62353;SDS011;48391;49.184;2.418;2023-12-20T02:35:27;1.73;;;0.50;;
62353;SDS011;48391;49.184;2.418;2023-12-20T02:37:53;0.57;;;0.35;;
62353;SDS011;48391;49.184;2.418;2023-12-20T02:40:19;0.63;;;0.30;;
62353;SDS011;48391;49.184;2.418;2023-12-20T02:42:45;1.58;;;0.20;;
62353;SDS011;48391;49.184;2.418;2023-12-20T02:45:11;1.30;;;0.40;;
62353;SDS011;48391;49.184;2.418;2023-12-20T02:47:37;5.57;;;0.50;;
62353;SDS011;48391;49.184;2.418;2023-12-20T02:50:03;1.17;;;0.52;;
62353;SDS011;48391;49.184;2.418;2023-12-20T02:52:29;1.48;;;0.38;;
62353;SDS011;48391;49.184;2.418;2023-12-20T02:54:55;1.98;;;1.00;;
62353;SDS011;48391;49.184;2.418;2023-12-20T02:57:21;3.47;;;1.20;;
62353;SDS011;48391;49.184;2.418;2023-12-20T02:59:47;2.08;;;0.85;;
62353;SDS011;48391;49.184;2.418;2023-12-20T03:02:13;2.53;;;0.70;;
62353;SDS011;48391;49.184;2.418;2023-12-20T03:04:40;1.92;;;0.60;;
62353;SDS011;48391;49.184;2.418;2023-12-20T03:07:06;1.73;;;0.40;;
62353;SDS011;48391;49.184;2.418;2023-12-20T03:09:32;3.65;;;0.80;;
62353;SDS011;48391;49.184;2.418;2023-12-20T03:11:58;1.10;;;0.50;;
62353;SDS011;48391;49.184;2.418;2023-12-20T03:14:24;2.90;;;0.82;;
62353;SDS011;48391;49.184;2.418;2023-12-20T03:16:50;1.10;;;0.50;;
62353;SDS011;48391;49.184;2.418;2023-12-20T03:19:16;3.50;;;0.50;;
62353;SDS011;48391;49.184;2.418;2023-12-20T03:21:43;2.25;;;0.30;;
62353;SDS011;48391;49.184;2.418;2023-12-20T03:24:09;1.38;;;1.15;;
62353;SDS011;48391;49.184;2.418;2023-12-20T03:26:35;3.95;;;0.40;;
62353;SDS011;48391;49.184;2.418;2023-12-20T03:29:01;1.90;;;0.35;;
62353;SDS011;48391;49.184;2.418;2023-12-20T03:31:27;0.60;;;0.25;;
62353;SDS011;48391;49.184;2.418;2023-12-20T03:33:53;0.93;;;0.20;;
62353;SDS011;48391;49.184;2.418;2023-12-20T03:36:19;2.38;;;0.57;;
62353;SDS011;48391;49.184;2.418;2023-12-20T03:38:45;2.70;;;0.40;;
62353;SDS011;48391;49.184;2.418;2023-12-20T03:41:11;2.67;;;0.77;;
62353;SDS011;48391;49.184;2.418;2023-12-20T03:43:37;1.65;;;0.85;;
62353;SDS011;48391;49.184;2.418;2023-12-20T03:46:03;0.55;;;0.47;;
62353;SDS011;48391;49.184;2.418;2023-12-20T03:48:30;1.55;;;0.45;;
62353;SDS011;48391;49.184;2.418;2023-12-20T03:50:56;2.13;;;0.47;;
62353;SDS011;48391;49.184;2.418;2023-12-20T03:53:22;1.05;;;0.47;;
62353;SDS011;48391;49.184;2.418;2023-12-20T03:55:48;2.05;;;0.30;;
62353;SDS011;48391;49.184;2.418;2023-12-20T03:58:14;2.00;;;0.50;;
62353;SDS011;48391;49.184;2.418;2023-12-20T04:00:40;0.93;;;0.73;;
62353;SDS011;48391;49.184;2.418;2023-12-20T04:03:07;2.90;;;0.52;;
62353;SDS011;48391;49.184;2.418;2023-12-20T04:05:33;3.05;;;1.15;;
62353;SDS011;48391;49.184;2.418;2023-12-20T04:08:00;1.10;;;0.40;;
62353;SDS011;48391;49.184;2.418;2023-12-20T04:10:27;2.65;;;0.52;;
62353;SDS011;48391;49.184;2.418;2023-12-20T04:12:53;2.30;;;1.23;;
62353;SDS011;48391;49.184;2.418;2023-12-20T04:15:20;2.55;;;0.80;;
62353;SDS011;48391;49.184;2.418;2023-12-20T04:17:46;1.92;;;1.00;;
62353;SDS011;48391;49.184;2.418;2023-12-20T04:20:12;3.50;;;1.45;;
62353;SDS011;48391;49.184;2.418;2023-12-20T04:22:38;3.22;;;1.38;;
62353;SDS011;48391;49.184;2.418;2023-12-20T04:25:04;1.95;;;0.60;;
62353;SDS011;48391;49.184;2.418;2023-12-20T04:27:30;0.95;;;0.50;;
62353;SDS011;48391;49.184;2.418;2023-12-20T04:29:56;4.47;;;0.65;;
62353;SDS011;48391;49.184;2.418;2023-12-20T04:32:22;3.90;;;0.90;;
62353;SDS011;48391;49.184;2.418;2023-12-20T04:34:48;1.67;;;0.47;;
62353;SDS011;48391;49.184;2.418;2023-12-20T04:37:14;1.00;;;0.52;;
62353;SDS011;48391;49.184;2.418;2023-12-20T04:39:40;1.48;;;0.60;;
62353;SDS011;48391;49.184;2.418;2023-12-20T04:42:07;1.20;;;0.57;;
62353;SDS011;48391;49.184;2.418;2023-12-20T04:44:33;4.85;;;1.17;;
62353;SDS011;48391;49.184;2.418;2023-12-20T04:46:59;7.20;;;1.35;;
62353;SDS011;48391;49.184;2.418;2023-12-20T04:49:26;1.95;;;0.50;;
62353;SDS011;48391;49.184;2.418;2023-12-20T04:51:52;1.33;;;0.57;;
62353;SDS011;48391;49.184;2.418;2023-12-20T04:54:18;1.38;;;0.50;;
62353;SDS011;48391;49.184;2.418;2023-12-20T04:56:44;1.58;;;0.43;;
62353;SDS011;48391;49.184;2.418;2023-12-20T04:59:10;2.00;;;0.30;;
62353;SDS011;48391;49.184;2.418;2023-12-20T05:01:36;0.55;;;0.20;;
62353;SDS011;48391;49.184;2.418;2023-12-20T05:04:02;1.25;;;0.50;;
62353;SDS011;48391;49.184;2.418;2023-12-20T05:06:28;2.88;;;0.38;;
62353;SDS011;48391;49.184;2.418;2023-12-20T05:08:54;1.58;;;0.57;;
62353;SDS011;48391;49.184;2.418;2023-12-20T05:11:21;3.08;;;0.60;;
62353;SDS011;48391;49.184;2.418;2023-12-20T05:13:47;1.25;;;0.40;;
62353;SDS011;48391;49.184;2.418;2023-12-20T05:16:13;0.68;;;0.38;;
62353;SDS011;48391;49.184;2.418;2023-12-20T05:18:39;1.52;;;0.73;;
62353;SDS011;48391;49.184;2.418;2023-12-20T05:21:05;3.05;;;0.40;;
62353;SDS011;48391;49.184;2.418;2023-12-20T05:23:32;3.17;;;0.85;;
62353;SDS011;48391;49.184;2.418;2023-12-20T05:25:58;1.77;;;0.55;;
62353;SDS011;48391;49.184;2.418;2023-12-20T05:28:24;2.47;;;0.30;;
62353;SDS011;48391;49.184;2.418;2023-12-20T05:30:50;2.95;;;0.70;;
62353;SDS011;48391;49.184;2.418;2023-12-20T05:33:16;4.50;;;0.60;;
62353;SDS011;48391;49.184;2.418;2023-12-20T05:35:42;4.95;;;0.75;;
62353;SDS011;48391;49.184;2.418;2023-12-20T05:38:09;1.65;;;0.88;;
62353;SDS011;48391;49.184;2.418;2023-12-20T05:40:35;3.45;;;1.27;;
62353;SDS011;48391;49.184;2.418;2023-12-20T05:43:01;1.25;;;0.30;;
62353;SDS011;48391;49.184;2.418;2023-12-20T05:45:27;3.70;;;0.93;;
62353;SDS011;48391;49.184;2.418;2023-12-20T05:47:53;1.73;;;0.55;;
62353;SDS011;48391;49.184;2.418;2023-12-20T05:50:19;2.45;;;1.67;;
62353;SDS011;48391;49.184;2.418;2023-12-20T05:52:46;2.20;;;1.83;;
62353;SDS011;48391;49.184;2.418;2023-12-20T05:55:12;4.40;;;1.25;;
62353;SDS011;48391;49.184;2.418;2023-12-20T05:57:40;1.27;;;0.57;;
62353;SDS011;48391;49.184;2.418;2023-12-20T06:00:08;9.07;;;2.83;;
62353;SDS011;48391;49.184;2.418;2023-12-20T06:02:34;1.88;;;1.10;;
62353;SDS011;48391;49.184;2.418;2023-12-20T06:05:02;4.72;;;2.47;;
62353;SDS011;48391;49.184;2.418;2023-12-20T06:07:28;5.57;;;1.02;;
62353;SDS011;48391;49.184;2.418;2023-12-20T06:09:54;4.13;;;0.60;;
62353;SDS011;48391;49.184;2.418;2023-12-20T06:12:20;4.15;;;1.30;;
62353;SDS011;48391;49.184;2.418;2023-12-20T06:14:46;1.67;;;0.88;;
62353;SDS011;48391;49.184;2.418;2023-12-20T06:17:12;3.75;;;0.68;;
62353;SDS011;48391;49.184;2.418;2023-12-20T06:19:38;1.10;;;0.65;;
62353;SDS011;48391;49.184;2.418;2023-12-20T06:22:05;4.18;;;0.73;;
62353;SDS011;48391;49.184;2.418;2023-12-20T06:24:31;3.55;;;1.20;;
62353;SDS011;48391;49.184;2.418;2023-12-20T06:26:58;6.28;;;1.10;;
62353;SDS011;48391;49.184;2.418;2023-12-20T06:29:24;2.65;;;0.75;;
62353;SDS011;48391;49.184;2.418;2023-12-20T06:31:50;3.22;;;0.68;;
62353;SDS011;48391;49.184;2.418;2023-12-20T06:34:16;1.52;;;0.70;;
62353;SDS011;48391;49.184;2.418;2023-12-20T06:36:42;1.58;;;0.65;;
62353;SDS011;48391;49.184;2.418;2023-12-20T06:39:08;1.80;;;0.40;;
62353;SDS011;48391;49.184;2.418;2023-12-20T06:41:37;0.90;;;0.70;;
62353;SDS011;48391;49.184;2.418;2023-12-20T06:44:03;0.95;;;0.60;;
62353;SDS011;48391;49.184;2.418;2023-12-20T06:46:29;2.13;;;0.43;;
62353;SDS011;48391;49.184;2.418;2023-12-20T06:48:55;1.73;;;0.52;;
62353;SDS011;48391;49.184;2.418;2023-12-20T06:51:21;2.45;;;0.80;;
62353;SDS011;48391;49.184;2.418;2023-12-20T06:53:50;3.08;;;0.75;;
62353;SDS011;48391;49.184;2.418;2023-12-20T06:56:16;1.05;;;0.82;;
62353;SDS011;48391;49.184;2.418;2023-12-20T06:58:42;1.63;;;0.50;;
62353;SDS011;48391;49.184;2.418;2023-12-20T07:01:11;1.70;;;0.90;;
62353;SDS011;48391;49.184;2.418;2023-12-20T07:03:38;1.05;;;0.50;;
62353;SDS011;48391;49.184;2.418;2023-12-20T07:06:05;7.28;;;1.85;;
62353;SDS011;48391;49.184;2.418;2023-12-20T07:08:32;6.45;;;2.20;;
62353;SDS011;48391;49.184;2.418;2023-12-20T07:10:58;3.38;;;1.50;;
62353;SDS011;48391;49.184;2.418;2023-12-20T07:13:24;5.72;;;1.30;;
62353;SDS011;48391;49.184;2.418;2023-12-20T07:15:50;4.57;;;1.85;;
62353;SDS011;48391;49.184;2.418;2023-12-20T07:18:16;5.00;;;2.60;;
62353;SDS011;48391;49.184;2.418;2023-12-20T07:20:42;5.65;;;3.08;;
62353;SDS011;48391;49.184;2.418;2023-12-20T07:23:08;5.82;;;2.30;;
62353;SDS011;48391;49.184;2.418;2023-12-20T07:25:35;2.72;;;1.48;;
62353;SDS011;48391;49.184;2.418;2023-12-20T07:28:01;5.20;;;1.52;;
62353;SDS011;48391;49.184;2.418;2023-12-20T07:30:27;3.88;;;1.52;;
62353;SDS011;48391;49.184;2.418;2023-12-20T07:32:53;3.78;;;1.73;;
62353;SDS011;48391;49.184;2.418;2023-12-20T07:35:19;1.90;;;1.38;;
62353;SDS011;48391;49.184;2.418;2023-12-20T07:37:45;4.53;;;1.85;;
62353;SDS011;48391;49.184;2.418;2023-12-20T07:40:11;2.55;;;1.90;;
62353;SDS011;48391;49.184;2.418;2023-12-20T07:42:37;3.60;;;2.08;;
62353;SDS011;48391;49.184;2.418;2023-12-20T07:45:03;1.60;;;1.23;;
62353;SDS011;48391;49.184;2.418;2023-12-20T07:47:29;2.20;;;1.33;;
62353;SDS011;48391;49.184;2.418;2023-12-20T07:49:55;3.88;;;0.90;;
62353;SDS011;48391;49.184;2.418;2023-12-20T07:52:21;3.10;;;1.45;;
62353;SDS011;48391;49.184;2.418;2023-12-20T07:54:47;2.83;;;1.13;;
62353;SDS011;48391;49.184;2.418;2023-12-20T07:57:13;3.65;;;1.75;;
62353;SDS011;48391;49.184;2.418;2023-12-20T07:59:39;5.13;;;1.63;;
62353;SDS011;48391;49.184;2.418;2023-12-20T08:02:05;2.15;;;1.40;;
62353;SDS011;48391;49.184;2.418;2023-12-20T08:04:32;2.72;;;1.42;;
62353;SDS011;48391;49.184;2.418;2023-12-20T08:06:58;3.78;;;1.10;;
62353;SDS011;48391;49.184;2.418;2023-12-20T08:09:25;2.55;;;1.30;;
62353;SDS011;48391;49.184;2.418;2023-12-20T08:11:51;3.55;;;1.17;;
62353;SDS011;48391;49.184;2.418;2023-12-20T08:14:17;2.75;;;1.52;;
62353;SDS011;48391;49.184;2.418;2023-12-20T08:16:43;2.53;;;1.38;;
62353;SDS011;48391;49.184;2.418;2023-12-20T08:19:09;1.33;;;0.93;;
62353;SDS011;48391;49.184;2.418;2023-12-20T08:21:35;2.90;;;1.27;;
62353;SDS011;48391;49.184;2.418;2023-12-20T08:24:01;3.35;;;1.67;;
62353;SDS011;48391;49.184;2.418;2023-12-20T08:26:27;2.47;;;1.75;;
62353;SDS011;48391;49.184;2.418;2023-12-20T08:28:53;3.85;;;2.63;;
62353;SDS011;48391;49.184;2.418;2023-12-20T08:31:20;7.10;;;1.60;;
62353;SDS011;48391;49.184;2.418;2023-12-20T08:33:46;5.13;;;1.80;;
62353;SDS011;48391;49.184;2.418;2023-12-20T08:36:12;2.60;;;1.33;;
62353;SDS011;48391;49.184;2.418;2023-12-20T08:38:39;2.63;;;1.38;;
62353;SDS011;48391;49.184;2.418;2023-12-20T08:41:05;2.83;;;1.60;;
62353;SDS011;48391;49.184;2.418;2023-12-20T08:43:31;4.75;;;2.33;;
62353;SDS011;48391;49.184;2.418;2023-12-20T08:45:57;4.35;;;2.28;;
62353;SDS011;48391;49.184;2.418;2023-12-20T08:48:23;5.05;;;2.00;;
62353;SDS011;48391;49.184;2.418;2023-12-20T08:50:49;3.15;;;1.98;;
62353;SDS011;48391;49.184;2.418;2023-12-20T08:53:17;3.38;;;1.85;;
62353;SDS011;48391;49.184;2.418;2023-12-20T08:55:43;3.60;;;1.35;;
62353;SDS011;48391;49.184;2.418;2023-12-20T08:58:09;6.90;;;2.20;;
62353;SDS011;48391;49.184;2.418;2023-12-20T09:00:35;5.53;;;1.45;;
62353;SDS011;48391;49.184;2.418;2023-12-20T09:03:01;1.45;;;1.35;;
62353;SDS011;48391;49.184;2.418;2023-12-20T09:05:27;4.68;;;2.53;;
62353;SDS011;48391;49.184;2.418;2023-12-20T09:07:54;12.85;;;2.97;;
62353;SDS011;48391;49.184;2.418;2023-12-20T09:12:50;6.97;;;2.67;;
62353;SDS011;48391;49.184;2.418;2023-12-20T09:15:16;7.10;;;2.17;;
62353;SDS011;48391;49.184;2.418;2023-12-20T09:17:43;7.22;;;1.75;;
62353;SDS011;48391;49.184;2.418;2023-12-20T09:20:09;10.63;;;2.53;;
62353;SDS011;48391;49.184;2.418;2023-12-20T09:22:35;5.22;;;1.40;;
62353;SDS011;48391;49.184;2.418;2023-12-20T09:25:03;7.10;;;1.92;;
62353;SDS011;48391;49.184;2.418;2023-12-20T09:27:30;3.60;;;1.70;;
62353;SDS011;48391;49.184;2.418;2023-12-20T09:29:56;7.68;;;1.83;;
62353;SDS011;48391;49.184;2.418;2023-12-20T09:32:22;8.48;;;2.78;;
62353;SDS011;48391;49.184;2.418;2023-12-20T09:34:48;6.97;;;2.10;;
62353;SDS011;48391;49.184;2.418;2023-12-20T09:37:14;8.50;;;3.05;;
62353;SDS011;48391;49.184;2.418;2023-12-20T09:39:40;6.38;;;2.00;;
62353;SDS011;48391;49.184;2.418;2023-12-20T09:42:06;4.78;;;1.63;;
62353;SDS011;48391;49.184;2.418;2023-12-20T09:44:33;7.63;;;2.55;;
62353;SDS011;48391;49.184;2.418;2023-12-20T09:47:01;7.00;;;2.28;;
62353;SDS011;48391;49.184;2.418;2023-12-20T09:49:28;9.23;;;3.05;;
62353;SDS011;48391;49.184;2.418;2023-12-20T09:51:55;8.48;;;2.90;;
62353;SDS011;48391;49.184;2.418;2023-12-20T09:54:22;15.85;;;3.95;;
62353;SDS011;48391;49.184;2.418;2023-12-20T09:56:48;12.55;;;4.03;;
62353;SDS011;48391;49.184;2.418;2023-12-20T09:59:15;7.53;;;2.97;;
62353;SDS011;48391;49.184;2.418;2023-12-20T10:01:41;9.18;;;2.63;;
62353;SDS011;48391;49.184;2.418;2023-12-20T10:04:08;9.07;;;2.60;;
62353;SDS011;48391;49.184;2.418;2023-12-20T10:06:36;10.32;;;3.75;;
62353;SDS011;48391;49.184;2.418;2023-12-20T10:09:02;10.45;;;3.67;;
62353;SDS011;48391;49.184;2.418;2023-12-20T10:11:29;9.38;;;3.33;;
62353;SDS011;48391;49.184;2.418;2023-12-20T10:14:01;12.68;;;4.45;;
62353;SDS011;48391;49.184;2.418;2023-12-20T10:16:28;9.80;;;3.85;;
62353;SDS011;48391;49.184;2.418;2023-12-20T10:18:54;16.50;;;4.63;;
62353;SDS011;48391;49.184;2.418;2023-12-20T10:21:20;7.68;;;3.50;;
62353;SDS011;48391;49.184;2.418;2023-12-20T10:23:47;9.20;;;3.85;;
62353;SDS011;48391;49.184;2.418;2023-12-20T10:26:22;12.05;;;3.70;;
62353;SDS011;48391;49.184;2.418;2023-12-20T10:28:55;9.38;;;4.00;;
62353;SDS011;48391;49.184;2.418;2023-12-20T10:31:28;7.72;;;2.60;;
62353;SDS011;48391;49.184;2.418;2023-12-20T10:33:57;5.90;;;2.97;;
62353;SDS011;48391;49.184;2.418;2023-12-20T10:36:28;9.80;;;2.93;;
62353;SDS011;48391;49.184;2.418;2023-12-20T10:38:55;7.28;;;2.17;;
62353;SDS011;48391;49.184;2.418;2023-12-20T10:41:26;7.72;;;2.67;;
62353;SDS011;48391;49.184;2.418;2023-12-20T10:43:58;7.95;;;2.30;;
62353;SDS011;48391;49.184;2.418;2023-12-20T10:46:26;11.77;;;2.77;;
62353;SDS011;48391;49.184;2.418;2023-12-20T10:48:53;9.05;;;2.92;;
62353;SDS011;48391;49.184;2.418;2023-12-20T10:51:20;9.75;;;2.67;;
62353;SDS011;48391;49.184;2.418;2023-12-20T10:53:49;6.38;;;2.53;;
62353;SDS011;48391;49.184;2.418;2023-12-20T10:56:17;9.13;;;2.97;;
62353;SDS011;48391;49.184;2.418;2023-12-20T10:58:43;9.50;;;3.05;;
62353;SDS011;48391;49.184;2.418;2023-12-20T11:01:09;11.57;;;4.10;;
62353;SDS011;48391;49.184;2.418;2023-12-20T11:03:38;10.98;;;3.25;;
62353;SDS011;48391;49.184;2.418;2023-12-20T11:06:08;15.48;;;3.05;;
62353;SDS011;48391;49.184;2.418;2023-12-20T11:08:41;14.88;;;3.47;;
62353;SDS011;48391;49.184;2.418;2023-12-20T11:13:59;6.22;;;2.28;;
62353;SDS011;48391;49.184;2.418;2023-12-20T11:16:25;9.32;;;2.40;;
62353;SDS011;48391;49.184;2.418;2023-12-20T11:18:51;7.38;;;1.65;;
62353;SDS011;48391;49.184;2.418;2023-12-20T11:21:18;4.82;;;1.90;;
62353;SDS011;48391;49.184;2.418;2023-12-20T11:23:44;6.63;;;2.08;;
62353;SDS011;48391;49.184;2.418;2023-12-20T11:26:10;10.77;;;3.47;;
62353;SDS011;48391;49.184;2.418;2023-12-20T11:28:36;9.05;;;2.83;;
62353;SDS011;48391;49.184;2.418;2023-12-20T11:31:03;12.73;;;2.75;;
62353;SDS011;48391;49.184;2.418;2023-12-20T11:33:36;11.63;;;2.90;;
62353;SDS011;48391;49.184;2.418;2023-12-20T11:36:15;9.10;;;2.45;;
62353;SDS011;48391;49.184;2.418;2023-12-20T11:38:56;8.35;;;2.03;;
62353;SDS011;48391;49.184;2.418;2023-12-20T11:41:23;7.40;;;2.22;;
62353;SDS011;48391;49.184;2.418;2023-12-20T11:43:49;7.85;;;2.00;;
62353;SDS011;48391;49.184;2.418;2023-12-20T11:46:18;12.45;;;2.47;;
62353;SDS011;48391;49.184;2.418;2023-12-20T11:48:44;7.05;;;1.65;;
62353;SDS011;48391;49.184;2.418;2023-12-20T11:51:11;8.40;;;2.03;;
62353;SDS011;48391;49.184;2.418;2023-12-20T11:53:37;5.72;;;2.45;;
62353;SDS011;48391;49.184;2.418;2023-12-20T11:56:04;8.32;;;2.42;;
62353;SDS011;48391;49.184;2.418;2023-12-20T11:58:31;6.43;;;2.47;;
62353;SDS011;48391;49.184;2.418;2023-12-20T12:00:57;9.18;;;2.17;;
62353;SDS011;48391;49.184;2.418;2023-12-20T12:03:23;11.57;;;3.05;;
62353;SDS011;48391;49.184;2.418;2023-12-20T12:05:50;9.32;;;2.38;;
62353;SDS011;48391;49.184;2.418;2023-12-20T12:08:19;6.65;;;1.77;;
62353;SDS011;48391;49.184;2.418;2023-12-20T12:10:45;5.38;;;1.33;;
62353;SDS011;48391;49.184;2.418;2023-12-20T12:13:11;4.82;;;1.48;;
62353;SDS011;48391;49.184;2.418;2023-12-20T12:15:39;7.68;;;1.55;;
62353;SDS011;48391;49.184;2.418;2023-12-20T12:18:07;10.20;;;2.35;;
62353;SDS011;48391;49.184;2.418;2023-12-20T12:20:34;8.52;;;1.80;;
62353;SDS011;48391;49.184;2.418;2023-12-20T12:23:02;11.30;;;2.28;;
62353;SDS011;48391;49.184;2.418;2023-12-20T12:25:29;5.35;;;1.58;;
62353;SDS011;48391;49.184;2.418;2023-12-20T12:27:59;7.03;;;1.60;;
62353;SDS011;48391;49.184;2.418;2023-12-20T12:30:30;5.10;;;1.35;;
62353;SDS011;48391;49.184;2.418;2023-12-20T12:33:01;6.22;;;1.50;;
62353;SDS011;48391;49.184;2.418;2023-12-20T12:35:29;7.25;;;1.67;;
62353;SDS011;48391;49.184;2.418;2023-12-20T12:37:58;7.65;;;2.15;;
62353;SDS011;48391;49.184;2.418;2023-12-20T12:40:28;8.77;;;1.45;;
62353;SDS011;48391;49.184;2.418;2023-12-20T12:42:54;8.23;;;1.40;;
62353;SDS011;48391;49.184;2.418;2023-12-20T12:45:20;10.63;;;2.15;;
62353;SDS011;48391;49.184;2.418;2023-12-20T12:47:47;3.42;;;1.35;;
62353;SDS011;48391;49.184;2.418;2023-12-20T12:50:13;4.50;;;1.90;;
62353;SDS011;48391;49.184;2.418;2023-12-20T12:52:40;4.28;;;1.35;;
62353;SDS011;48391;49.184;2.418;2023-12-20T12:55:06;7.45;;;2.53;;
62353;SDS011;48391;49.184;2.418;2023-12-20T12:57:32;5.50;;;1.90;;
62353;SDS011;48391;49.184;2.418;2023-12-20T12:59:58;3.35;;;1.55;;
62353;SDS011;48391;49.184;2.418;2023-12-20T13:02:24;6.60;;;2.33;;
62353;SDS011;48391;49.184;2.418;2023-12-20T13:04:50;5.00;;;1.60;;
62353;SDS011;48391;49.184;2.418;2023-12-20T13:07:17;7.68;;;1.27;;
62353;SDS011;48391;49.184;2.418;2023-12-20T13:09:43;4.22;;;1.30;;
62353;SDS011;48391;49.184;2.418;2023-12-20T13:12:09;8.68;;;1.48;;
62353;SDS011;48391;49.184;2.418;2023-12-20T13:14:35;4.80;;;1.95;;
62353;SDS011;48391;49.184;2.418;2023-12-20T13:19:32;8.80;;;1.60;;
62353;SDS011;48391;49.184;2.418;2023-12-20T13:22:00;4.93;;;1.52;;
62353;SDS011;48391;49.184;2.418;2023-12-20T13:24:27;3.67;;;1.73;;
62353;SDS011;48391;49.184;2.418;2023-12-20T13:26:55;5.60;;;1.80;;
62353;SDS011;48391;49.184;2.418;2023-12-20T13:29:22;3.42;;;1.60;;
62353;SDS011;48391;49.184;2.418;2023-12-20T13:31:49;4.38;;;1.38;;
62353;SDS011;48391;49.184;2.418;2023-12-20T13:34:16;8.43;;;2.08;;
62353;SDS011;48391;49.184;2.418;2023-12-20T13:36:43;6.20;;;2.70;;
62353;SDS011;48391;49.184;2.418;2023-12-20T13:39:15;7.95;;;2.10;;
62353;SDS011;48391;49.184;2.418;2023-12-20T13:41:44;10.35;;;2.92;;
62353;SDS011;48391;49.184;2.418;2023-12-20T13:44:11;6.28;;;2.03;;
62353;SDS011;48391;49.184;2.418;2023-12-20T13:46:37;10.55;;;2.13;;
62353;SDS011;48391;49.184;2.418;2023-12-20T13:49:05;5.57;;;1.67;;
62353;SDS011;48391;49.184;2.418;2023-12-20T13:51:35;11.80;;;2.45;;
62353;SDS011;48391;49.184;2.418;2023-12-20T13:54:01;5.65;;;1.35;;
62353;SDS011;48391;49.184;2.418;2023-12-20T13:56:29;9.48;;;2.08;;
62353;SDS011;48391;49.184;2.418;2023-12-20T13:58:57;6.97;;;1.88;;
62353;SDS011;48391;49.184;2.418;2023-12-20T14:01:24;7.85;;;2.00;;
62353;SDS011;48391;49.184;2.418;2023-12-20T14:03:53;3.25;;;1.08;;
62353;SDS011;48391;49.184;2.418;2023-12-20T14:06:19;5.57;;;1.50;;
62353;SDS011;48391;49.184;2.418;2023-12-20T14:08:45;8.63;;;1.50;;
62353;SDS011;48391;49.184;2.418;2023-12-20T14:11:13;10.75;;;2.28;;
62353;SDS011;48391;49.184;2.418;2023-12-20T14:13:40;9.77;;;2.42;;
62353;SDS011;48391;49.184;2.418;2023-12-20T14:16:08;11.10;;;2.65;;
62353;SDS011;48391;49.184;2.418;2023-12-20T14:18:36;11.50;;;2.85;;
62353;SDS011;48391;49.184;2.418;2023-12-20T14:21:03;6.63;;;2.55;;
62353;SDS011;48391;49.184;2.418;2023-12-20T14:23:31;7.30;;;2.22;;
62353;SDS011;48391;49.184;2.418;2023-12-20T14:25:59;9.27;;;2.13;;
62353;SDS011;48391;49.184;2.418;2023-12-20T14:28:25;4.47;;;1.63;;
62353;SDS011;48391;49.184;2.418;2023-12-20T14:30:51;5.30;;;2.10;;
62353;SDS011;48391;49.184;2.418;2023-12-20T14:33:18;6.30;;;2.72;;
62353;SDS011;48391;49.184;2.418;2023-12-20T14:35:46;7.28;;;1.55;;
62353;SDS011;48391;49.184;2.418;2023-12-20T14:38:13;7.93;;;2.22;;
62353;SDS011;48391;49.184;2.418;2023-12-20T14:40:40;5.40;;;1.88;;
62353;SDS011;48391;49.184;2.418;2023-12-20T14:43:06;4.15;;;1.60;;
62353;SDS011;48391;49.184;2.418;2023-12-20T14:45:32;9.40;;;2.03;;
62353;SDS011;48391;49.184;2.418;2023-12-20T14:47:58;8.52;;;2.25;;
62353;SDS011;48391;49.184;2.418;2023-12-20T14:50:24;4.75;;;1.75;;